sensor_id;sensor_type;location;lat;lon;timestamp;temperature;humidity
80254;DHT22;69563;37.974;23.708;2023-08-01T00:00:51;30.60;33.90
80254;DHT22;69563;37.974;23.708;2023-08-01T00:03:17;30.60;33.90
80254;DHT22;69563;37.974;23.708;2023-08-01T00:05:43;30.60;33.80
80254;DHT22;69563;37.974;23.708;2023-08-01T00:08:13;30.60;33.80
80254;DHT22;69563;37.974;23.708;2023-08-01T00:10:40;30.60;33.90
80254;DHT22;69563;37.974;23.708;2023-08-01T00:13:07;30.60;33.90
80254;DHT22;69563;37.974;23.708;2023-08-01T00:15:33;30.60;34.00
80254;DHT22;69563;37.974;23.708;2023-08-01T00:17:59;30.60;34.00
80254;DHT22;69563;37.974;23.708;2023-08-01T00:20:25;30.60;34.00
80254;DHT22;69563;37.974;23.708;2023-08-01T00:22:50;30.50;33.90
80254;DHT22;69563;37.974;23.708;2023-08-01T00:25:17;30.60;34.00
80254;DHT22;69563;37.974;23.708;2023-08-01T00:27:43;30.50;34.00
80254;DHT22;69563;37.974;23.708;2023-08-01T00:30:09;30.50;34.10
80254;DHT22;69563;37.974;23.708;2023-08-01T00:32:35;30.40;34.20
80254;DHT22;69563;37.974;23.708;2023-08-01T00:35:01;30.40;34.40
80254;DHT22;69563;37.974;23.708;2023-08-01T00:37:27;30.40;34.50
80254;DHT22;69563;37.974;23.708;2023-08-01T00:39:53;30.40;34.70
80254;DHT22;69563;37.974;23.708;2023-08-01T00:42:18;30.30;35.00
80254;DHT22;69563;37.974;23.708;2023-08-01T00:44:44;30.20;35.20
80254;DHT22;69563;37.974;23.708;2023-08-01T00:47:10;30.20;35.30
80254;DHT22;69563;37.974;23.708;2023-08-01T00:49:36;30.20;35.30
80254;DHT22;69563;37.974;23.708;2023-08-01T00:52:02;30.30;35.40
80254;DHT22;69563;37.974;23.708;2023-08-01T00:54:28;30.30;35.50
80254;DHT22;69563;37.974;23.708;2023-08-01T00:57:00;30.30;35.40
80254;DHT22;69563;37.974;23.708;2023-08-01T00:59:26;30.30;35.50
80254;DHT22;69563;37.974;23.708;2023-08-01T01:01:51;30.30;35.50
80254;DHT22;69563;37.974;23.708;2023-08-01T01:04:17;30.30;35.60
80254;DHT22;69563;37.974;23.708;2023-08-01T01:07:05;30.30;35.60
80254;DHT22;69563;37.974;23.708;2023-08-01T01:09:31;30.30;35.70
80254;DHT22;69563;37.974;23.708;2023-08-01T01:11:58;30.30;35.80
80254;DHT22;69563;37.974;23.708;2023-08-01T01:14:28;30.30;35.90
80254;DHT22;69563;37.974;23.708;2023-08-01T01:16:54;30.30;36.00
80254;DHT22;69563;37.974;23.708;2023-08-01T01:19:19;30.30;36.10
80254;DHT22;69563;37.974;23.708;2023-08-01T01:21:46;30.30;36.10
80254;DHT22;69563;37.974;23.708;2023-08-01T01:24:13;30.30;36.10
80254;DHT22;69563;37.974;23.708;2023-08-01T01:26:41;30.40;36.30
80254;DHT22;69563;37.974;23.708;2023-08-01T01:29:07;30.40;36.30
80254;DHT22;69563;37.974;23.708;2023-08-01T01:31:36;30.30;36.30
80254;DHT22;69563;37.974;23.708;2023-08-01T01:34:03;30.30;36.50
80254;DHT22;69563;37.974;23.708;2023-08-01T01:36:29;30.40;36.70
80254;DHT22;69563;37.974;23.708;2023-08-01T01:38:55;30.30;36.70
80254;DHT22;69563;37.974;23.708;2023-08-01T01:41:21;30.30;36.90
80254;DHT22;69563;37.974;23.708;2023-08-01T01:43:48;30.30;37.00
80254;DHT22;69563;37.974;23.708;2023-08-01T01:46:13;30.30;37.20
80254;DHT22;69563;37.974;23.708;2023-08-01T01:48:39;30.30;37.20
80254;DHT22;69563;37.974;23.708;2023-08-01T01:51:05;30.30;37.20
80254;DHT22;69563;37.974;23.708;2023-08-01T01:53:31;30.40;37.30
80254;DHT22;69563;37.974;23.708;2023-08-01T01:55:56;30.30;37.30
80254;DHT22;69563;37.974;23.708;2023-08-01T01:58:22;30.30;37.40
80254;DHT22;69563;37.974;23.708;2023-08-01T02:00:49;30.30;37.50
80254;DHT22;69563;37.974;23.708;2023-08-01T02:03:14;30.30;37.60
80254;DHT22;69563;37.974;23.708;2023-08-01T02:05:40;30.30;37.70
80254;DHT22;69563;37.974;23.708;2023-08-01T02:08:07;30.30;38.20
80254;DHT22;69563;37.974;23.708;2023-08-01T02:10:32;30.30;38.20
80254;DHT22;69563;37.974;23.708;2023-08-01T02:12:58;30.20;38.30
80254;DHT22;69563;37.974;23.708;2023-08-01T02:15:24;30.30;38.40
80254;DHT22;69563;37.974;23.708;2023-08-01T02:17:50;30.20;38.40
80254;DHT22;69563;37.974;23.708;2023-08-01T02:20:15;30.30;38.60
80254;DHT22;69563;37.974;23.708;2023-08-01T02:22:41;30.20;38.60
80254;DHT22;69563;37.974;23.708;2023-08-01T02:25:07;30.20;38.70
80254;DHT22;69563;37.974;23.708;2023-08-01T02:27:33;30.20;38.80
80254;DHT22;69563;37.974;23.708;2023-08-01T02:29:59;30.20;38.80
80254;DHT22;69563;37.974;23.708;2023-08-01T02:32:24;30.20;38.80
80254;DHT22;69563;37.974;23.708;2023-08-01T02:34:50;30.20;38.90
80254;DHT22;69563;37.974;23.708;2023-08-01T02:37:16;30.20;38.80
80254;DHT22;69563;37.974;23.708;2023-08-01T02:39:41;30.30;38.90
80254;DHT22;69563;37.974;23.708;2023-08-01T02:42:07;30.30;38.90
80254;DHT22;69563;37.974;23.708;2023-08-01T02:44:33;30.30;38.90
80254;DHT22;69563;37.974;23.708;2023-08-01T02:46:59;30.20;39.00
80254;DHT22;69563;37.974;23.708;2023-08-01T02:49:25;30.30;39.10
80254;DHT22;69563;37.974;23.708;2023-08-01T02:51:51;30.20;39.00
80254;DHT22;69563;37.974;23.708;2023-08-01T02:54:16;30.30;39.10
80254;DHT22;69563;37.974;23.708;2023-08-01T02:56:42;30.20;39.10
80254;DHT22;69563;37.974;23.708;2023-08-01T02:59:08;30.20;39.20
80254;DHT22;69563;37.974;23.708;2023-08-01T03:01:38;30.20;39.30
80254;DHT22;69563;37.974;23.708;2023-08-01T03:04:04;30.20;39.40
80254;DHT22;69563;37.974;23.708;2023-08-01T03:06:33;30.20;39.50
80254;DHT22;69563;37.974;23.708;2023-08-01T03:08:59;30.20;39.60
80254;DHT22;69563;37.974;23.708;2023-08-01T03:11:26;30.20;39.70
80254;DHT22;69563;37.974;23.708;2023-08-01T03:13:52;30.20;39.90
80254;DHT22;69563;37.974;23.708;2023-08-01T03:16:18;30.20;39.80
80254;DHT22;69563;37.974;23.708;2023-08-01T03:18:43;30.20;39.90
80254;DHT22;69563;37.974;23.708;2023-08-01T03:21:10;30.20;39.90
80254;DHT22;69563;37.974;23.708;2023-08-01T03:23:36;30.20;40.00
80254;DHT22;69563;37.974;23.708;2023-08-01T03:26:02;30.10;40.10
80254;DHT22;69563;37.974;23.708;2023-08-01T03:28:28;30.10;40.20
80254;DHT22;69563;37.974;23.708;2023-08-01T03:30:54;30.10;40.20
80254;DHT22;69563;37.974;23.708;2023-08-01T03:33:20;30.20;40.20
80254;DHT22;69563;37.974;23.708;2023-08-01T03:35:46;30.20;40.20
80254;DHT22;69563;37.974;23.708;2023-08-01T03:38:12;30.20;40.30
80254;DHT22;69563;37.974;23.708;2023-08-01T03:40:38;30.20;40.30
80254;DHT22;69563;37.974;23.708;2023-08-01T03:43:04;30.10;40.20
80254;DHT22;69563;37.974;23.708;2023-08-01T03:45:30;30.20;40.20
80254;DHT22;69563;37.974;23.708;2023-08-01T03:47:56;30.20;40.30
80254;DHT22;69563;37.974;23.708;2023-08-01T03:50:22;30.10;40.30
80254;DHT22;69563;37.974;23.708;2023-08-01T03:52:47;30.20;40.40
80254;DHT22;69563;37.974;23.708;2023-08-01T03:55:13;30.20;40.50
80254;DHT22;69563;37.974;23.708;2023-08-01T03:57:39;30.20;40.50
80254;DHT22;69563;37.974;23.708;2023-08-01T04:00:08;30.10;40.50
80254;DHT22;69563;37.974;23.708;2023-08-01T04:02:43;30.20;40.60
80254;DHT22;69563;37.974;23.708;2023-08-01T04:05:09;30.20;41.00
80254;DHT22;69563;37.974;23.708;2023-08-01T04:07:39;30.20;43.10
80254;DHT22;69563;37.974;23.708;2023-08-01T04:10:05;30.20;41.90
80254;DHT22;69563;37.974;23.708;2023-08-01T04:12:34;30.20;41.30
80254;DHT22;69563;37.974;23.708;2023-08-01T04:15:00;30.30;40.80
80254;DHT22;69563;37.974;23.708;2023-08-01T04:17:26;30.30;40.90
80254;DHT22;69563;37.974;23.708;2023-08-01T04:19:52;30.30;40.90
80254;DHT22;69563;37.974;23.708;2023-08-01T04:22:18;30.20;41.10
80254;DHT22;69563;37.974;23.708;2023-08-01T04:24:44;30.20;41.20
80254;DHT22;69563;37.974;23.708;2023-08-01T04:27:10;30.30;41.20
80254;DHT22;69563;37.974;23.708;2023-08-01T04:29:35;30.20;41.30
80254;DHT22;69563;37.974;23.708;2023-08-01T04:32:01;30.20;41.30
80254;DHT22;69563;37.974;23.708;2023-08-01T04:34:27;30.20;41.30
80254;DHT22;69563;37.974;23.708;2023-08-01T04:36:52;30.20;41.30
80254;DHT22;69563;37.974;23.708;2023-08-01T04:39:18;30.20;41.40
80254;DHT22;69563;37.974;23.708;2023-08-01T04:41:44;30.20;41.40
80254;DHT22;69563;37.974;23.708;2023-08-01T04:44:09;30.30;41.50
80254;DHT22;69563;37.974;23.708;2023-08-01T04:46:35;30.30;41.40
80254;DHT22;69563;37.974;23.708;2023-08-01T04:49:01;30.30;41.40
80254;DHT22;69563;37.974;23.708;2023-08-01T04:51:27;30.40;41.20
80254;DHT22;69563;37.974;23.708;2023-08-01T04:53:52;30.50;41.10
80254;DHT22;69563;37.974;23.708;2023-08-01T04:56:18;30.40;41.20
80254;DHT22;69563;37.974;23.708;2023-08-01T04:58:44;30.40;41.30
80254;DHT22;69563;37.974;23.708;2023-08-01T05:01:10;30.50;41.10
80254;DHT22;69563;37.974;23.708;2023-08-01T05:03:35;30.50;41.00
80254;DHT22;69563;37.974;23.708;2023-08-01T05:06:01;30.50;41.20
80254;DHT22;69563;37.974;23.708;2023-08-01T05:08:27;30.60;41.20
80254;DHT22;69563;37.974;23.708;2023-08-01T05:10:52;30.60;40.90
80254;DHT22;69563;37.974;23.708;2023-08-01T05:13:18;30.60;41.20
80254;DHT22;69563;37.974;23.708;2023-08-01T05:15:45;30.60;41.20
80254;DHT22;69563;37.974;23.708;2023-08-01T05:18:16;30.60;41.10
80254;DHT22;69563;37.974;23.708;2023-08-01T05:20:42;30.60;41.40
80254;DHT22;69563;37.974;23.708;2023-08-01T05:23:08;30.50;41.30
80254;DHT22;69563;37.974;23.708;2023-08-01T05:25:34;30.60;41.30
80254;DHT22;69563;37.974;23.708;2023-08-01T05:27:59;30.70;41.20
80254;DHT22;69563;37.974;23.708;2023-08-01T05:30:25;30.70;41.20
80254;DHT22;69563;37.974;23.708;2023-08-01T05:32:51;30.70;41.30
80254;DHT22;69563;37.974;23.708;2023-08-01T05:35:17;30.60;41.20
80254;DHT22;69563;37.974;23.708;2023-08-01T05:37:43;30.60;41.20
80254;DHT22;69563;37.974;23.708;2023-08-01T05:40:09;30.70;41.10
80254;DHT22;69563;37.974;23.708;2023-08-01T05:42:35;30.70;41.00
80254;DHT22;69563;37.974;23.708;2023-08-01T05:45:01;30.70;40.80
80254;DHT22;69563;37.974;23.708;2023-08-01T05:47:27;30.90;40.80
80254;DHT22;69563;37.974;23.708;2023-08-01T05:49:52;30.90;40.70
80254;DHT22;69563;37.974;23.708;2023-08-01T05:52:18;30.90;40.60
80254;DHT22;69563;37.974;23.708;2023-08-01T05:54:44;30.90;40.60
80254;DHT22;69563;37.974;23.708;2023-08-01T05:57:09;30.90;40.60
80254;DHT22;69563;37.974;23.708;2023-08-01T05:59:35;30.90;40.50
80254;DHT22;69563;37.974;23.708;2023-08-01T06:02:01;30.80;40.60
80254;DHT22;69563;37.974;23.708;2023-08-01T06:04:28;30.80;40.60
80254;DHT22;69563;37.974;23.708;2023-08-01T06:06:53;30.70;40.70
80254;DHT22;69563;37.974;23.708;2023-08-01T06:09:19;30.80;40.80
80254;DHT22;69563;37.974;23.708;2023-08-01T06:11:45;30.80;40.80
80254;DHT22;69563;37.974;23.708;2023-08-01T06:14:11;30.80;40.80
80254;DHT22;69563;37.974;23.708;2023-08-01T06:16:36;30.80;40.90
80254;DHT22;69563;37.974;23.708;2023-08-01T06:19:02;30.80;41.00
80254;DHT22;69563;37.974;23.708;2023-08-01T06:21:28;30.90;41.00
80254;DHT22;69563;37.974;23.708;2023-08-01T06:23:54;30.90;40.80
80254;DHT22;69563;37.974;23.708;2023-08-01T06:26:20;31.00;40.80
80254;DHT22;69563;37.974;23.708;2023-08-01T06:28:45;31.00;40.80
80254;DHT22;69563;37.974;23.708;2023-08-01T06:31:11;31.00;40.80
80254;DHT22;69563;37.974;23.708;2023-08-01T06:33:37;31.10;40.80
80254;DHT22;69563;37.974;23.708;2023-08-01T06:36:03;31.10;40.70
80254;DHT22;69563;37.974;23.708;2023-08-01T06:38:29;31.10;40.80
80254;DHT22;69563;37.974;23.708;2023-08-01T06:40:55;31.10;40.80
80254;DHT22;69563;37.974;23.708;2023-08-01T06:43:20;31.10;40.70
80254;DHT22;69563;37.974;23.708;2023-08-01T06:45:46;31.20;40.60
80254;DHT22;69563;37.974;23.708;2023-08-01T06:48:12;31.20;40.60
80254;DHT22;69563;37.974;23.708;2023-08-01T06:50:38;31.20;40.40
80254;DHT22;69563;37.974;23.708;2023-08-01T06:53:04;31.30;40.40
80254;DHT22;69563;37.974;23.708;2023-08-01T06:55:29;31.20;40.30
80254;DHT22;69563;37.974;23.708;2023-08-01T06:57:55;31.30;40.40
80254;DHT22;69563;37.974;23.708;2023-08-01T07:00:21;31.30;40.30
80254;DHT22;69563;37.974;23.708;2023-08-01T07:02:46;31.30;40.20
80254;DHT22;69563;37.974;23.708;2023-08-01T07:05:12;31.30;40.10
80254;DHT22;69563;37.974;23.708;2023-08-01T07:07:38;31.30;40.00
80254;DHT22;69563;37.974;23.708;2023-08-01T07:10:04;31.20;40.10
80254;DHT22;69563;37.974;23.708;2023-08-01T07:12:30;31.20;40.30
80254;DHT22;69563;37.974;23.708;2023-08-01T07:14:55;31.30;40.10
80254;DHT22;69563;37.974;23.708;2023-08-01T07:17:21;31.30;39.90
80254;DHT22;69563;37.974;23.708;2023-08-01T07:19:47;31.30;39.90
80254;DHT22;69563;37.974;23.708;2023-08-01T07:22:13;31.30;39.60
80254;DHT22;69563;37.974;23.708;2023-08-01T07:24:38;31.40;39.60
80254;DHT22;69563;37.974;23.708;2023-08-01T07:27:05;31.40;39.60
80254;DHT22;69563;37.974;23.708;2023-08-01T07:29:30;31.30;39.70
80254;DHT22;69563;37.974;23.708;2023-08-01T07:31:56;31.30;39.80
80254;DHT22;69563;37.974;23.708;2023-08-01T07:34:22;31.30;39.90
80254;DHT22;69563;37.974;23.708;2023-08-01T07:36:48;31.40;39.80
80254;DHT22;69563;37.974;23.708;2023-08-01T07:39:15;31.30;39.60
80254;DHT22;69563;37.974;23.708;2023-08-01T07:41:41;31.30;39.90
80254;DHT22;69563;37.974;23.708;2023-08-01T07:44:06;31.30;39.80
80254;DHT22;69563;37.974;23.708;2023-08-01T07:46:35;31.40;39.50
80254;DHT22;69563;37.974;23.708;2023-08-01T07:49:22;31.50;39.10
80254;DHT22;69563;37.974;23.708;2023-08-01T07:51:50;31.60;39.30
80254;DHT22;69563;37.974;23.708;2023-08-01T07:54:17;31.60;39.40
80254;DHT22;69563;37.974;23.708;2023-08-01T07:56:50;31.50;39.60
80254;DHT22;69563;37.974;23.708;2023-08-01T07:59:16;31.60;39.70
80254;DHT22;69563;37.974;23.708;2023-08-01T08:01:42;31.60;39.60
80254;DHT22;69563;37.974;23.708;2023-08-01T08:04:08;31.70;39.50
80254;DHT22;69563;37.974;23.708;2023-08-01T08:06:34;31.60;39.50
80254;DHT22;69563;37.974;23.708;2023-08-01T08:08:59;31.60;39.70
80254;DHT22;69563;37.974;23.708;2023-08-01T08:11:25;31.70;39.40
80254;DHT22;69563;37.974;23.708;2023-08-01T08:13:51;31.70;39.30
80254;DHT22;69563;37.974;23.708;2023-08-01T08:16:16;31.60;39.20
80254;DHT22;69563;37.974;23.708;2023-08-01T08:18:42;31.70;39.40
80254;DHT22;69563;37.974;23.708;2023-08-01T08:21:08;31.70;38.80
80254;DHT22;69563;37.974;23.708;2023-08-01T08:23:33;31.80;38.90
80254;DHT22;69563;37.974;23.708;2023-08-01T08:25:59;31.70;39.00
80254;DHT22;69563;37.974;23.708;2023-08-01T08:28:29;31.60;39.10
80254;DHT22;69563;37.974;23.708;2023-08-01T08:30:56;31.50;39.30
80254;DHT22;69563;37.974;23.708;2023-08-01T08:33:22;31.70;39.50
80254;DHT22;69563;37.974;23.708;2023-08-01T08:35:48;31.80;39.10
80254;DHT22;69563;37.974;23.708;2023-08-01T08:38:14;31.80;39.10
80254;DHT22;69563;37.974;23.708;2023-08-01T08:40:43;31.80;38.90
80254;DHT22;69563;37.974;23.708;2023-08-01T08:43:09;31.70;39.30
80254;DHT22;69563;37.974;23.708;2023-08-01T08:45:35;31.60;39.50
80254;DHT22;69563;37.974;23.708;2023-08-01T08:48:09;31.70;39.40
80254;DHT22;69563;37.974;23.708;2023-08-01T08:50:38;31.80;39.20
80254;DHT22;69563;37.974;23.708;2023-08-01T08:53:06;31.80;39.10
80254;DHT22;69563;37.974;23.708;2023-08-01T08:55:41;31.80;39.20
80254;DHT22;69563;37.974;23.708;2023-08-01T08:58:07;31.70;39.00
80254;DHT22;69563;37.974;23.708;2023-08-01T09:00:35;31.70;39.20
80254;DHT22;69563;37.974;23.708;2023-08-01T09:03:01;31.70;39.20
80254;DHT22;69563;37.974;23.708;2023-08-01T09:05:32;31.60;39.20
80254;DHT22;69563;37.974;23.708;2023-08-01T09:08:02;31.60;39.40
80254;DHT22;69563;37.974;23.708;2023-08-01T09:10:31;31.50;39.20
80254;DHT22;69563;37.974;23.708;2023-08-01T09:12:57;31.50;39.00
80254;DHT22;69563;37.974;23.708;2023-08-01T09:15:25;31.60;39.10
80254;DHT22;69563;37.974;23.708;2023-08-01T09:17:55;31.50;39.40
80254;DHT22;69563;37.974;23.708;2023-08-01T09:20:30;31.50;39.70
80254;DHT22;69563;37.974;23.708;2023-08-01T09:22:55;31.60;39.50
80254;DHT22;69563;37.974;23.708;2023-08-01T09:25:31;31.60;39.50
80254;DHT22;69563;37.974;23.708;2023-08-01T09:28:00;31.60;39.40
80254;DHT22;69563;37.974;23.708;2023-08-01T09:30:26;31.70;39.30
80254;DHT22;69563;37.974;23.708;2023-08-01T09:32:56;31.60;38.90
80254;DHT22;69563;37.974;23.708;2023-08-01T09:35:23;31.60;38.90
80254;DHT22;69563;37.974;23.708;2023-08-01T09:37:49;31.70;38.60
80254;DHT22;69563;37.974;23.708;2023-08-01T09:40:15;31.70;38.60
80254;DHT22;69563;37.974;23.708;2023-08-01T09:42:42;31.70;38.60
80254;DHT22;69563;37.974;23.708;2023-08-01T09:45:15;31.60;38.70
80254;DHT22;69563;37.974;23.708;2023-08-01T09:47:45;31.50;38.50
80254;DHT22;69563;37.974;23.708;2023-08-01T09:50:12;31.50;38.70
80254;DHT22;69563;37.974;23.708;2023-08-01T09:52:45;31.50;38.80
80254;DHT22;69563;37.974;23.708;2023-08-01T09:55:31;31.50;38.70
80254;DHT22;69563;37.974;23.708;2023-08-01T09:57:58;31.60;38.60
80254;DHT22;69563;37.974;23.708;2023-08-01T10:00:28;31.60;38.40
80254;DHT22;69563;37.974;23.708;2023-08-01T10:02:59;31.70;38.20
80254;DHT22;69563;37.974;23.708;2023-08-01T10:05:30;31.60;37.90
80254;DHT22;69563;37.974;23.708;2023-08-01T10:07:59;31.60;37.90
80254;DHT22;69563;37.974;23.708;2023-08-01T10:10:26;31.60;37.90
80254;DHT22;69563;37.974;23.708;2023-08-01T10:12:54;31.50;37.90
80254;DHT22;69563;37.974;23.708;2023-08-01T10:15:20;31.50;37.60
80254;DHT22;69563;37.974;23.708;2023-08-01T10:17:45;31.60;37.50
80254;DHT22;69563;37.974;23.708;2023-08-01T10:20:12;31.60;37.40
80254;DHT22;69563;37.974;23.708;2023-08-01T10:22:40;31.70;37.40
80254;DHT22;69563;37.974;23.708;2023-08-01T10:25:07;31.80;37.30
80254;DHT22;69563;37.974;23.708;2023-08-01T10:27:34;31.80;37.20
80254;DHT22;69563;37.974;23.708;2023-08-01T10:30:03;31.80;37.10
80254;DHT22;69563;37.974;23.708;2023-08-01T10:32:34;31.80;37.20
80254;DHT22;69563;37.974;23.708;2023-08-01T10:35:00;31.80;37.30
80254;DHT22;69563;37.974;23.708;2023-08-01T10:37:27;31.70;37.50
80254;DHT22;69563;37.974;23.708;2023-08-01T10:40:02;31.70;37.60
80254;DHT22;69563;37.974;23.708;2023-08-01T10:42:41;31.70;37.70
80254;DHT22;69563;37.974;23.708;2023-08-01T10:45:18;31.80;37.80
80254;DHT22;69563;37.974;23.708;2023-08-01T10:47:44;31.80;37.80
80254;DHT22;69563;37.974;23.708;2023-08-01T10:50:14;31.70;38.00
80254;DHT22;69563;37.974;23.708;2023-08-01T10:52:41;31.70;38.10
80254;DHT22;69563;37.974;23.708;2023-08-01T10:55:07;31.70;38.10
80254;DHT22;69563;37.974;23.708;2023-08-01T10:57:35;31.70;38.10
80254;DHT22;69563;37.974;23.708;2023-08-01T11:00:01;31.80;38.10
80254;DHT22;69563;37.974;23.708;2023-08-01T11:02:30;31.80;38.10
80254;DHT22;69563;37.974;23.708;2023-08-01T11:04:59;31.80;38.20
80254;DHT22;69563;37.974;23.708;2023-08-01T11:07:26;31.70;38.30
80254;DHT22;69563;37.974;23.708;2023-08-01T11:10:12;31.80;38.40
80254;DHT22;69563;37.974;23.708;2023-08-01T11:12:42;31.80;38.30
80254;DHT22;69563;37.974;23.708;2023-08-01T11:15:12;31.80;38.50
80254;DHT22;69563;37.974;23.708;2023-08-01T11:17:46;31.80;38.50
80254;DHT22;69563;37.974;23.708;2023-08-01T11:20:13;31.80;38.60
80254;DHT22;69563;37.974;23.708;2023-08-01T11:23:09;31.70;38.60
80254;DHT22;69563;37.974;23.708;2023-08-01T11:25:45;31.80;38.70
80254;DHT22;69563;37.974;23.708;2023-08-01T11:28:16;31.80;38.70
80254;DHT22;69563;37.974;23.708;2023-08-01T11:30:42;31.80;38.70
80254;DHT22;69563;37.974;23.708;2023-08-01T11:33:23;31.80;38.80
80254;DHT22;69563;37.974;23.708;2023-08-01T11:35:55;31.80;38.80
80254;DHT22;69563;37.974;23.708;2023-08-01T11:38:28;31.90;39.20
80254;DHT22;69563;37.974;23.708;2023-08-01T11:40:59;31.90;39.50
80254;DHT22;69563;37.974;23.708;2023-08-01T11:43:25;31.90;39.80
80254;DHT22;69563;37.974;23.708;2023-08-01T11:45:54;31.90;40.10
80254;DHT22;69563;37.974;23.708;2023-08-01T11:48:23;31.90;40.40
80254;DHT22;69563;37.974;23.708;2023-08-01T11:50:59;31.90;40.70
80254;DHT22;69563;37.974;23.708;2023-08-01T11:53:25;31.80;40.80
80254;DHT22;69563;37.974;23.708;2023-08-01T11:55:51;31.80;40.90
80254;DHT22;69563;37.974;23.708;2023-08-01T12:01:12;31.80;41.10
80254;DHT22;69563;37.974;23.708;2023-08-01T12:03:50;31.80;41.10
80254;DHT22;69563;37.974;23.708;2023-08-01T12:06:17;31.80;41.30
80254;DHT22;69563;37.974;23.708;2023-08-01T12:08:44;31.80;41.60
80254;DHT22;69563;37.974;23.708;2023-08-01T12:11:21;31.80;41.80
80254;DHT22;69563;37.974;23.708;2023-08-01T12:13:47;31.80;42.00
80254;DHT22;69563;37.974;23.708;2023-08-01T12:16:14;31.70;42.10
80254;DHT22;69563;37.974;23.708;2023-08-01T12:18:42;31.70;42.40
80254;DHT22;69563;37.974;23.708;2023-08-01T12:21:10;31.70;42.40
80254;DHT22;69563;37.974;23.708;2023-08-01T12:23:36;31.70;42.50
80254;DHT22;69563;37.974;23.708;2023-08-01T12:26:01;31.60;42.40
80254;DHT22;69563;37.974;23.708;2023-08-01T12:28:27;31.70;42.40
80254;DHT22;69563;37.974;23.708;2023-08-01T12:30:53;31.60;42.40
80254;DHT22;69563;37.974;23.708;2023-08-01T12:33:19;31.60;42.20
80254;DHT22;69563;37.974;23.708;2023-08-01T12:35:44;31.60;42.00
80254;DHT22;69563;37.974;23.708;2023-08-01T12:38:10;31.60;41.70
80254;DHT22;69563;37.974;23.708;2023-08-01T12:40:36;31.50;41.50
80254;DHT22;69563;37.974;23.708;2023-08-01T12:43:01;31.50;41.20
80254;DHT22;69563;37.974;23.708;2023-08-01T12:45:28;31.50;41.00
80254;DHT22;69563;37.974;23.708;2023-08-01T12:47:54;31.50;40.80
80254;DHT22;69563;37.974;23.708;2023-08-01T12:50:19;31.50;40.60
80254;DHT22;69563;37.974;23.708;2023-08-01T12:52:45;31.50;40.40
80254;DHT22;69563;37.974;23.708;2023-08-01T12:55:11;31.50;40.40
80254;DHT22;69563;37.974;23.708;2023-08-01T12:57:36;31.50;40.30
80254;DHT22;69563;37.974;23.708;2023-08-01T13:00:02;31.40;40.20
80254;DHT22;69563;37.974;23.708;2023-08-01T13:02:29;31.40;40.10
80254;DHT22;69563;37.974;23.708;2023-08-01T13:04:54;31.40;40.00
80254;DHT22;69563;37.974;23.708;2023-08-01T13:07:20;31.40;40.00
80254;DHT22;69563;37.974;23.708;2023-08-01T13:09:47;31.30;39.90
80254;DHT22;69563;37.974;23.708;2023-08-01T13:12:12;31.30;39.90
80254;DHT22;69563;37.974;23.708;2023-08-01T13:14:38;31.30;40.00
80254;DHT22;69563;37.974;23.708;2023-08-01T13:17:04;31.30;40.00
80254;DHT22;69563;37.974;23.708;2023-08-01T13:19:30;31.20;39.90
80254;DHT22;69563;37.974;23.708;2023-08-01T13:21:56;31.20;39.80
80254;DHT22;69563;37.974;23.708;2023-08-01T13:24:22;31.30;39.80
80254;DHT22;69563;37.974;23.708;2023-08-01T13:26:47;31.30;39.70
80254;DHT22;69563;37.974;23.708;2023-08-01T13:29:13;31.30;39.60
80254;DHT22;69563;37.974;23.708;2023-08-01T13:31:39;31.30;39.50
80254;DHT22;69563;37.974;23.708;2023-08-01T13:34:05;31.30;39.50
80254;DHT22;69563;37.974;23.708;2023-08-01T13:36:31;31.30;39.40
80254;DHT22;69563;37.974;23.708;2023-08-01T13:38:56;31.30;39.30
80254;DHT22;69563;37.974;23.708;2023-08-01T13:41:22;31.30;39.40
80254;DHT22;69563;37.974;23.708;2023-08-01T13:43:48;31.30;39.20
80254;DHT22;69563;37.974;23.708;2023-08-01T13:46:16;31.30;39.30
80254;DHT22;69563;37.974;23.708;2023-08-01T13:48:45;31.30;39.30
80254;DHT22;69563;37.974;23.708;2023-08-01T13:51:11;31.20;39.20
80254;DHT22;69563;37.974;23.708;2023-08-01T13:53:36;31.20;39.30
80254;DHT22;69563;37.974;23.708;2023-08-01T13:56:12;31.20;39.30
80254;DHT22;69563;37.974;23.708;2023-08-01T13:58:38;31.20;39.20
80254;DHT22;69563;37.974;23.708;2023-08-01T14:01:06;31.30;39.30
80254;DHT22;69563;37.974;23.708;2023-08-01T14:03:38;31.30;39.20
80254;DHT22;69563;37.974;23.708;2023-08-01T14:06:11;31.30;39.20
80254;DHT22;69563;37.974;23.708;2023-08-01T14:08:37;31.30;39.20
80254;DHT22;69563;37.974;23.708;2023-08-01T14:11:04;31.30;39.10
80254;DHT22;69563;37.974;23.708;2023-08-01T14:13:31;31.30;39.20
80254;DHT22;69563;37.974;23.708;2023-08-01T14:15:56;31.30;39.20
80254;DHT22;69563;37.974;23.708;2023-08-01T14:18:22;31.30;39.10
80254;DHT22;69563;37.974;23.708;2023-08-01T14:20:48;31.30;39.10
80254;DHT22;69563;37.974;23.708;2023-08-01T14:23:14;31.30;39.10
80254;DHT22;69563;37.974;23.708;2023-08-01T14:25:40;31.30;39.10
80254;DHT22;69563;37.974;23.708;2023-08-01T14:28:05;31.20;39.10
80254;DHT22;69563;37.974;23.708;2023-08-01T14:30:31;31.20;39.10
80254;DHT22;69563;37.974;23.708;2023-08-01T14:33:05;31.20;39.20
80254;DHT22;69563;37.974;23.708;2023-08-01T14:35:32;31.20;39.20
80254;DHT22;69563;37.974;23.708;2023-08-01T14:37:58;31.20;39.20
80254;DHT22;69563;37.974;23.708;2023-08-01T14:40:25;31.20;39.30
80254;DHT22;69563;37.974;23.708;2023-08-01T14:42:51;31.20;39.40
80254;DHT22;69563;37.974;23.708;2023-08-01T14:45:17;31.20;39.40
80254;DHT22;69563;37.974;23.708;2023-08-01T14:47:44;31.30;39.40
80254;DHT22;69563;37.974;23.708;2023-08-01T14:50:11;31.20;39.40
80254;DHT22;69563;37.974;23.708;2023-08-01T14:52:37;31.20;39.50
80254;DHT22;69563;37.974;23.708;2023-08-01T14:55:03;31.20;39.50
80254;DHT22;69563;37.974;23.708;2023-08-01T14:57:29;31.20;39.50
80254;DHT22;69563;37.974;23.708;2023-08-01T14:59:55;31.20;39.60
80254;DHT22;69563;37.974;23.708;2023-08-01T15:02:21;31.20;39.50
80254;DHT22;69563;37.974;23.708;2023-08-01T15:04:51;31.20;39.50
80254;DHT22;69563;37.974;23.708;2023-08-01T15:07:17;31.10;40.10
80254;DHT22;69563;37.974;23.708;2023-08-01T15:09:43;31.10;41.20
80254;DHT22;69563;37.974;23.708;2023-08-01T15:12:09;31.00;41.40
80254;DHT22;69563;37.974;23.708;2023-08-01T15:14:36;31.00;41.30
80254;DHT22;69563;37.974;23.708;2023-08-01T15:17:02;31.00;41.20